Time;durP1;ratioP1;P1;durP2;ratioP2;P2;SDS_P1;SDS_P2;PMS_P1;PMS_P2;Temp;Humidity;BMP_temperature;BMP_pressure;BME280_temperature;BME280_humidity;BME280_pressure;Samples;Min_cycle;Max_cycle;Signal;HPM_P1;HPM_P2
2021/12/08 00:02:17;;;;;;;0.00;0.00;;;3.30;99.90;;;;;;5116722;27;20241;-84
2021/12/08 00:04:43;;;;;;;1.55;0.63;;;3.30;99.90;;;;;;5117755;27;20050;-83
2021/12/08 00:07:09;;;;;;;0.00;0.00;;;3.30;99.90;;;;;;5116492;28;20047;-84
2021/12/08 00:09:48;;;;;;;0.22;0.22;;;3.30;99.90;;;;;;5134334;27;20394;-83
2021/12/08 00:15:00;;;;;;;0.10;0.10;;;3.30;99.90;;;;;;5117258;27;20061;-83
2021/12/08 00:17:26;;;;;;;0.00;0.00;;;3.30;99.90;;;;;;5116793;27;20125;-83
2021/12/08 00:19:51;;;;;;;9.60;2.05;;;3.30;99.90;;;;;;5116810;27;20046;-81
2021/12/08 00:22:17;;;;;;;0.10;0.08;;;3.30;99.90;;;;;;5116780;27;20043;-81
2021/12/08 00:24:44;;;;;;;0.00;0.00;;;3.30;99.90;;;;;;5134053;27;20069;-81
2021/12/08 00:27:10;;;;;;;0.00;0.00;;;3.30;99.90;;;;;;5099596;28;20417;-81
2021/12/08 00:29:36;;;;;;;0.10;0.10;;;3.30;99.90;;;;;;5116778;27;20046;-82
2021/12/08 00:32:02;;;;;;;0.00;0.00;;;3.40;99.90;;;;;;5099537;27;20053;-81
2021/12/08 00:34:27;;;;;;;0.00;0.00;;;3.40;99.90;;;;;;5115880;27;20062;-80
2021/12/08 00:36:57;;;;;;;0.00;0.00;;;3.40;99.90;;;;;;5151314;27;20047;-81
2021/12/08 00:39:23;;;;;;;0.00;0.00;;;3.40;99.90;;;;;;5134128;28;20095;-80
2021/12/08 00:41:49;;;;;;;0.20;0.20;;;3.40;99.90;;;;;;5099908;28;20047;-81
2021/12/08 00:44:15;;;;;;;0.00;0.00;;;3.40;99.90;;;;;;5116856;28;20050;-80
2021/12/08 00:46:41;;;;;;;0.00;0.00;;;3.40;99.90;;;;;;5150870;27;20386;-80
2021/12/08 00:49:08;;;;;;;0.03;0.03;;;3.40;99.90;;;;;;5099371;28;20069;-80
2021/12/08 00:51:34;;;;;;;1.23;0.17;;;3.40;99.90;;;;;;5116780;28;20058;-80
2021/12/08 00:54:00;;;;;;;0.00;0.00;;;3.40;99.90;;;;;;5116318;28;20137;-80
2021/12/08 00:56:26;;;;;;;0.00;0.00;;;3.50;99.90;;;;;;5099636;28;20095;-80
2021/12/08 00:58:52;;;;;;;0.00;0.00;;;3.60;99.90;;;;;;5133795;28;20043;-80
2021/12/08 01:01:18;;;;;;;0.00;0.00;;;3.60;99.90;;;;;;5133477;28;20137;-80
2021/12/08 01:03:45;;;;;;;1.08;0.47;;;3.60;99.90;;;;;;5149703;27;20122;-81
2021/12/08 01:06:11;;;;;;;0.63;0.15;;;3.60;99.90;;;;;;5099347;28;20042;-80
2021/12/08 01:08:37;;;;;;;0.00;0.00;;;3.60;99.90;;;;;;5099430;28;20045;-80
2021/12/08 01:11:09;;;;;;;0.00;0.00;;;3.60;99.90;;;;;;5151059;27;20040;-80
2021/12/08 01:13:34;;;;;;;0.00;0.00;;;3.60;99.90;;;;;;5099713;28;20490;-80
2021/12/08 01:16:00;;;;;;;0.30;0.20;;;3.60;99.90;;;;;;5133151;28;20054;-80
2021/12/08 01:18:30;;;;;;;0.38;0.38;;;3.60;99.90;;;;;;5117402;27;20071;-81
2021/12/08 01:20:57;;;;;;;0.10;0.10;;;3.60;99.90;;;;;;5120061;27;20050;-82
2021/12/08 01:23:24;;;;;;;0.00;0.00;;;3.70;99.90;;;;;;5120791;27;20043;-81
2021/12/08 01:25:50;;;;;;;0.00;0.00;;;3.70;99.90;;;;;;5103857;27;20105;-80
2021/12/08 01:28:19;;;;;;;0.00;0.00;;;3.70;99.90;;;;;;5154306;27;20082;-81
2021/12/08 01:30:46;;;;;;;9.23;0.90;;;3.70;99.90;;;;;;5120312;27;20050;-81
2021/12/08 01:33:12;;;;;;;0.00;0.00;;;3.70;99.90;;;;;;5120224;27;20401;-80
2021/12/08 01:35:37;;;;;;;0.00;0.00;;;3.80;99.90;;;;;;5155075;27;20047;-81
2021/12/08 01:38:03;;;;;;;0.00;0.00;;;3.70;99.90;;;;;;5137851;27;20478;-81
2021/12/08 01:40:29;;;;;;;0.00;0.00;;;3.70;99.90;;;;;;5102870;27;20059;-81
2021/12/08 01:42:58;;;;;;;0.15;0.15;;;3.80;99.90;;;;;;5120318;27;20050;-80
2021/12/08 01:48:17;;;;;;;0.05;0.05;;;3.80;99.90;;;;;;5119863;27;20058;-80
2021/12/08 01:50:46;;;;;;;0.00;0.00;;;3.80;99.90;;;;;;5102775;27;20094;-81
2021/12/08 01:53:12;;;;;;;0.00;0.00;;;3.80;99.90;;;;;;5120321;27;20040;-80
2021/12/08 01:55:39;;;;;;;0.20;0.20;;;3.80;99.90;;;;;;5154683;27;20047;-80
2021/12/08 01:58:07;;;;;;;0.00;0.00;;;3.80;99.90;;;;;;5102980;27;20051;-80
2021/12/08 02:00:45;;;;;;;0.00;0.00;;;3.80;99.90;;;;;;5120154;27;20166;-81
2021/12/08 02:03:11;;;;;;;0.00;0.00;;;3.80;99.90;;;;;;5120425;27;20035;-80
2021/12/08 02:05:37;;;;;;;0.00;0.00;;;3.80;99.90;;;;;;5154453;27;20440;-80
2021/12/08 02:08:04;;;;;;;0.00;0.00;;;3.80;99.90;;;;;;5154133;27;20078;-80
2021/12/08 02:10:30;;;;;;;0.10;0.10;;;3.80;99.90;;;;;;5119852;27;20382;-80
2021/12/08 02:12:56;;;;;;;0.10;0.10;;;3.80;99.90;;;;;;5102596;27;20054;-80
2021/12/08 02:15:22;;;;;;;0.00;0.00;;;3.80;99.90;;;;;;5119428;27;20039;-79
2021/12/08 02:17:52;;;;;;;0.00;0.00;;;3.80;99.90;;;;;;5153381;27;20046;-80
2021/12/08 02:20:19;;;;;;;0.35;0.28;;;3.80;99.90;;;;;;5102344;27;20407;-80
2021/12/08 02:22:45;;;;;;;1.27;0.50;;;3.80;99.90;;;;;;5118733;27;20039;-80
2021/12/08 02:25:16;;;;;;;0.00;0.00;;;3.80;99.90;;;;;;5153465;27;20066;-80
2021/12/08 02:27:42;;;;;;;0.00;0.00;;;3.70;99.90;;;;;;5101988;27;20486;-80
2021/12/08 02:30:24;;;;;;;0.00;0.00;;;3.80;99.90;;;;;;5134600;27;20047;-80
2021/12/08 02:46:49;;;;;;;0.00;0.00;;;3.70;99.90;;;;;;5118230;27;20085;-80
2021/12/08 02:49:18;;;;;;;0.00;0.00;;;3.80;99.90;;;;;;5101855;27;20050;-80
2021/12/08 02:51:44;;;;;;;0.00;0.00;;;3.80;99.90;;;;;;5101446;27;20047;-80
2021/12/08 02:54:10;;;;;;;0.00;0.00;;;3.90;99.90;;;;;;5101220;27;20055;-80
2021/12/08 02:56:36;;;;;;;0.00;0.00;;;3.80;99.90;;;;;;5118128;27;20461;-79
2021/12/08 02:59:03;;;;;;;0.00;0.00;;;3.80;99.90;;;;;;5152617;27;20082;-81
2021/12/08 03:01:30;;;;;;;0.00;0.00;;;3.80;99.90;;;;;;5118826;27;20046;-80
2021/12/08 03:03:56;;;;;;;0.55;0.43;;;3.80;99.90;;;;;;5118386;27;20043;-80
2021/12/08 03:06:22;;;;;;;0.00;0.00;;;3.90;99.90;;;;;;5135920;27;20188;-80
2021/12/08 03:08:49;;;;;;;0.00;0.00;;;3.90;99.90;;;;;;5101059;27;20479;-80
2021/12/08 03:11:14;;;;;;;1.17;0.32;;;4.10;99.90;;;;;;5118621;27;20043;-80
2021/12/08 03:13:45;;;;;;;0.00;0.00;;;3.90;99.90;;;;;;5135685;27;20454;-80
2021/12/08 03:16:12;;;;;;;0.00;0.00;;;3.90;99.90;;;;;;5101766;27;20047;-79
2021/12/08 03:18:40;;;;;;;0.10;0.10;;;4.00;99.90;;;;;;5101239;27;20111;-80
2021/12/08 03:21:09;;;;;;;0.00;0.00;;;4.00;99.90;;;;;;5117766;27;20126;-80
2021/12/08 03:23:49;;;;;;;0.00;0.00;;;4.00;99.90;;;;;;5101201;27;20435;-80
2021/12/08 03:26:15;;;;;;;0.20;0.15;;;4.00;99.90;;;;;;5101324;27;20050;-80
2021/12/08 03:28:56;;;;;;;3.65;1.38;;;4.00;99.90;;;;;;5118652;27;20051;-80
2021/12/08 03:31:28;;;;;;;0.00;0.00;;;4.00;99.90;;;;;;5134833;27;20043;-80
2021/12/08 03:33:54;;;;;;;0.00;0.00;;;4.00;99.90;;;;;;5133960;27;20096;-79
2021/12/08 03:36:20;;;;;;;0.73;0.57;;;4.10;99.90;;;;;;5117556;27;20051;-80
2021/12/08 03:38:45;;;;;;;0.00;0.00;;;4.10;99.90;;;;;;5151701;27;20130;-79
2021/12/08 03:41:11;;;;;;;0.00;0.00;;;4.10;99.90;;;;;;5134012;27;20039;-79
2021/12/08 03:43:37;;;;;;;0.10;0.08;;;4.20;99.90;;;;;;5117431;27;20498;-79
2021/12/08 03:46:04;;;;;;;0.03;0.03;;;4.20;99.90;;;;;;5100272;27;20103;-80
2021/12/08 03:48:43;;;;;;;0.00;0.00;;;4.30;99.90;;;;;;5117490;27;20051;-80
2021/12/08 03:51:09;;;;;;;0.10;0.10;;;4.40;99.90;;;;;;5116589;27;20497;-80
2021/12/08 03:53:35;;;;;;;0.00;0.00;;;4.40;99.90;;;;;;5100356;27;20047;-79
2021/12/08 03:56:03;;;;;;;0.00;0.00;;;4.50;99.90;;;;;;5100495;27;20141;-79
2021/12/08 03:58:29;;;;;;;0.00;0.00;;;4.50;99.90;;;;;;5134834;27;20520;-80
2021/12/08 04:00:56;;;;;;;0.00;0.00;;;4.60;99.90;;;;;;5152114;27;20130;-80
2021/12/08 04:03:25;;;;;;;0.00;0.00;;;4.60;99.90;;;;;;5116796;27;20509;-80
2021/12/08 04:06:00;;;;;;;0.00;0.00;;;4.60;99.90;;;;;;5099986;27;20093;-80
2021/12/08 04:08:39;;;;;;;3.00;0.47;;;4.70;99.90;;;;;;5117461;27;20039;-81
2021/12/08 04:11:06;;;;;;;0.15;0.15;;;4.70;99.90;;;;;;5099861;27;20047;-80
2021/12/08 04:13:45;;;;;;;0.40;0.40;;;4.70;99.90;;;;;;5117851;27;20103;-80
2021/12/08 04:16:13;;;;;;;0.00;0.00;;;4.70;99.90;;;;;;5100445;27;20118;-80
2021/12/08 04:18:39;;;;;;;0.00;0.00;;;4.70;99.90;;;;;;5117265;27;20402;-80
2021/12/08 04:21:07;;;;;;;0.47;0.47;;;4.80;99.90;;;;;;5116403;27;20550;-80
2021/12/08 04:23:36;;;;;;;0.08;0.00;;;4.70;99.90;;;;;;5099540;27;20131;-80
2021/12/08 04:26:05;;;;;;;0.00;0.00;;;4.80;99.90;;;;;;5100021;28;20051;-80
2021/12/08 04:28:32;;;;;;;0.00;0.00;;;4.80;99.90;;;;;;5116731;27;20509;-80
2021/12/08 04:31:16;;;;;;;0.00;0.00;;;4.90;99.90;;;;;;5116149;27;20598;-80
2021/12/08 04:33:42;;;;;;;0.98;0.38;;;4.80;99.90;;;;;;5096197;28;20055;-80
2021/12/08 04:36:12;;;;;;;0.00;0.00;;;4.80;99.90;;;;;;5113228;28;20055;-80
2021/12/08 04:38:41;;;;;;;0.20;0.20;;;4.80;99.90;;;;;;5096246;28;20074;-80
2021/12/08 04:41:17;;;;;;;0.00;0.00;;;4.80;99.90;;;;;;5113098;28;20043;-80
2021/12/08 04:46:43;;;;;;;0.00;0.00;;;4.90;99.90;;;;;;5114197;28;20048;-79
2021/12/08 05:00:57;;;;;;;0.00;0.00;;;5.00;99.90;;;;;;5118018;28;20574;-80
2021/12/08 05:07:00;;;;;;;0.00;0.00;;;5.00;99.90;;;;;;5072389;28;20055;-80
2021/12/08 05:09:33;;;;;;;0.00;0.00;;;5.10;99.90;;;;;;5023020;28;20382;-80
2021/12/08 05:12:08;;;;;;;0.00;0.00;;;5.10;99.90;;;;;;5039727;28;20061;-80
2021/12/08 05:14:42;;;;;;;0.00;0.00;;;5.10;99.90;;;;;;5072680;28;20069;-80
2021/12/08 05:17:17;;;;;;;0.03;0.00;;;5.20;99.90;;;;;;5039101;28;20292;-80
2021/12/08 05:19:46;;;;;;;0.08;0.08;;;5.20;99.90;;;;;;5039636;28;20594;-80
2021/12/08 05:22:18;;;;;;;0.20;0.20;;;5.20;99.90;;;;;;5038937;28;20123;-80
2021/12/08 05:24:48;;;;;;;0.00;0.00;;;5.30;99.90;;;;;;5039116;28;20140;-79
2021/12/08 05:27:19;;;;;;;0.00;0.00;;;5.30;99.90;;;;;;5072735;28;20132;-79
2021/12/08 05:29:47;;;;;;;0.15;0.15;;;5.30;99.90;;;;;;5039109;28;20060;-79
2021/12/08 05:32:13;;;;;;;0.00;0.00;;;5.30;99.90;;;;;;5022043;28;20052;-79
2021/12/08 05:34:40;;;;;;;0.00;0.00;;;5.30;99.90;;;;;;5023277;28;20058;-79
2021/12/08 05:37:08;;;;;;;0.00;0.00;;;5.30;99.90;;;;;;5002089;28;20091;-80
2021/12/08 05:39:35;;;;;;;0.00;0.00;;;5.30;99.90;;;;;;5018477;28;20136;-79
2021/12/08 05:42:05;;;;;;;0.00;0.00;;;5.40;99.90;;;;;;5018812;28;20048;-80
2021/12/08 05:44:32;;;;;;;0.00;0.00;;;5.40;99.90;;;;;;5096433;28;20040;-80
2021/12/08 05:47:02;;;;;;;0.00;0.00;;;5.30;99.90;;;;;;5096162;28;20048;-79
2021/12/08 05:49:28;;;;;;;0.63;0.63;;;5.40;99.90;;;;;;5078959;28;20048;-79
2021/12/08 05:51:56;;;;;;;0.10;0.03;;;5.40;99.90;;;;;;5095737;28;20040;-79
2021/12/08 05:54:49;;;;;;;0.22;0.22;;;5.40;99.90;;;;;;5113126;28;20140;-79
2021/12/08 05:57:29;;;;;;;0.00;0.00;;;5.40;99.90;;;;;;5076828;28;20060;-79
2021/12/08 05:59:56;;;;;;;0.38;0.15;;;5.40;99.90;;;;;;5096547;28;20048;-79
2021/12/08 06:02:34;;;;;;;0.22;0.15;;;5.40;99.90;;;;;;5112996;28;20050;-82
2021/12/08 06:05:00;;;;;;;0.40;0.08;;;5.40;99.90;;;;;;5113410;28;20055;-81
2021/12/08 06:07:26;;;;;;;3.50;0.55;;;5.40;99.90;;;;;;5096617;28;20052;-82
2021/12/08 06:09:56;;;;;;;0.80;0.00;;;5.40;99.90;;;;;;5096345;28;20090;-82
2021/12/08 06:12:23;;;;;;;0.03;0.00;;;5.50;99.90;;;;;;5095908;28;20495;-81
2021/12/08 06:14:54;;;;;;;0.00;0.00;;;5.40;99.90;;;;;;5095338;28;20492;-81
2021/12/08 06:17:21;;;;;;;0.00;0.00;;;5.40;99.90;;;;;;5112696;28;20052;-81
2021/12/08 06:19:48;;;;;;;0.00;0.00;;;5.40;99.90;;;;;;5095984;28;20055;-80
2021/12/08 06:22:16;;;;;;;0.00;0.00;;;5.40;99.90;;;;;;5095824;28;20106;-81
2021/12/08 06:24:43;;;;;;;0.00;0.00;;;5.60;99.90;;;;;;5095582;28;20098;-80
2021/12/08 06:27:09;;;;;;;0.00;0.00;;;5.40;99.90;;;;;;5095913;28;20086;-80
2021/12/08 06:29:36;;;;;;;0.00;0.00;;;5.40;99.90;;;;;;5095207;28;20083;-81
2021/12/08 06:32:06;;;;;;;0.00;0.00;;;5.40;99.90;;;;;;5095175;28;20048;-81
2021/12/08 06:34:33;;;;;;;0.00;0.00;;;5.50;99.90;;;;;;5108636;28;20051;-81
2021/12/08 06:37:04;;;;;;;0.00;0.00;;;5.50;99.90;;;;;;5097834;28;20051;-81
2021/12/08 06:39:50;;;;;;;0.00;0.00;;;5.50;99.90;;;;;;5099135;28;20077;-81
2021/12/08 06:42:21;;;;;;;0.00;0.00;;;5.50;99.90;;;;;;5098987;28;20039;-82
2021/12/08 06:44:49;;;;;;;0.00;0.00;;;5.40;99.90;;;;;;5116578;28;20101;-83
2021/12/08 06:47:19;;;;;;;0.82;0.82;;;5.40;99.90;;;;;;5099013;28;20182;-82
2021/12/08 06:49:47;;;;;;;0.00;0.00;;;5.50;99.90;;;;;;5099095;28;20043;-82
2021/12/08 06:52:21;;;;;;;0.00;0.00;;;5.40;99.90;;;;;;5115673;28;20047;-82
2021/12/08 06:55:01;;;;;;;0.00;0.00;;;5.40;99.90;;;;;;5150301;27;20081;-82
2021/12/08 06:57:36;;;;;;;0.00;0.00;;;5.40;99.90;;;;;;5098894;28;20044;-82
2021/12/08 07:00:25;;;;;;;0.00;0.00;;;5.50;99.90;;;;;;5115658;28;20044;-82
2021/12/08 07:03:06;;;;;;;0.75;0.35;;;5.40;99.90;;;;;;5115280;28;20054;-82
2021/12/08 07:08:20;;;;;;;0.00;0.00;;;5.50;99.90;;;;;;5115543;28;20090;-82
2021/12/08 07:10:48;;;;;;;0.00;0.00;;;5.40;99.90;;;;;;5098423;28;20091;-82
2021/12/08 07:13:22;;;;;;;1.65;0.63;;;5.50;99.90;;;;;;5114760;28;20044;-82
2021/12/08 07:16:05;;;;;;;0.00;0.00;;;5.50;99.90;;;;;;5115112;28;20091;-82
2021/12/08 07:18:56;;;;;;;0.22;0.10;;;5.50;99.90;;;;;;5097647;28;20050;-82
2021/12/08 07:21:27;;;;;;;0.25;0.20;;;5.50;99.90;;;;;;5097320;28;20035;-82
2021/12/08 07:23:59;;;;;;;0.00;0.00;;;5.60;99.90;;;;;;5114240;28;20108;-82
2021/12/08 07:26:28;;;;;;;0.00;0.00;;;5.50;99.90;;;;;;5115714;28;20044;-82
2021/12/08 07:28:56;;;;;;;0.00;0.00;;;5.50;99.90;;;;;;5098017;28;20040;-82
2021/12/08 07:31:25;;;;;;;1.35;0.00;;;5.50;99.90;;;;;;5097811;28;20035;-82
2021/12/08 07:33:51;;;;;;;0.15;0.15;;;5.50;99.90;;;;;;5148124;27;20062;-82
2021/12/08 07:36:19;;;;;;;0.00;0.00;;;5.60;99.90;;;;;;5113813;28;20052;-82
2021/12/08 07:38:49;;;;;;;0.00;0.00;;;5.50;99.90;;;;;;5097322;28;20043;-82
2021/12/08 07:41:22;;;;;;;0.00;0.00;;;5.40;99.90;;;;;;5096914;28;20074;-82
2021/12/08 07:43:53;;;;;;;1.40;1.30;;;5.70;99.90;;;;;;5097275;28;20079;-82
2021/12/08 07:46:31;;;;;;;0.00;0.00;;;5.40;99.90;;;;;;5097429;28;20414;-82
2021/12/08 07:49:12;;;;;;;2.13;0.85;;;5.40;99.90;;;;;;5098018;28;20402;-82
2021/12/08 07:52:00;;;;;;;0.00;0.00;;;5.40;99.90;;;;;;5097354;28;20040;-82
2021/12/08 07:54:28;;;;;;;0.85;0.85;;;5.40;99.90;;;;;;5018749;28;20053;-82
2021/12/08 07:56:57;;;;;;;0.45;0.45;;;5.40;99.90;;;;;;5035211;28;20139;-82
2021/12/08 07:59:24;;;;;;;0.00;0.00;;;5.50;99.90;;;;;;5035101;28;20114;-82
2021/12/08 08:01:55;;;;;;;0.28;0.22;;;5.40;99.90;;;;;;5018272;28;20048;-81
2021/12/08 08:04:24;;;;;;;0.00;0.00;;;5.50;99.90;;;;;;5035092;28;20497;-82
2021/12/08 08:06:56;;;;;;;0.00;0.00;;;5.50;99.90;;;;;;5036180;28;20444;-82
2021/12/08 08:09:25;;;;;;;0.00;0.00;;;5.50;99.90;;;;;;5035480;28;20041;-82
2021/12/08 08:11:57;;;;;;;0.00;0.00;;;5.50;99.90;;;;;;5018470;28;20455;-82
2021/12/08 08:14:27;;;;;;;0.00;0.00;;;5.50;99.90;;;;;;5018938;28;20049;-81
2021/12/08 08:16:56;;;;;;;0.10;0.10;;;5.50;99.90;;;;;;5019168;28;20049;-81
2021/12/08 08:19:27;;;;;;;0.00;0.00;;;5.50;99.90;;;;;;5035152;28;20045;-82
2021/12/08 08:21:55;;;;;;;0.35;0.35;;;5.50;99.90;;;;;;5035076;28;20544;-82
2021/12/08 08:24:21;;;;;;;0.00;0.00;;;5.60;99.90;;;;;;5018615;28;20504;-82
2021/12/08 08:26:50;;;;;;;0.00;0.00;;;5.60;99.90;;;;;;5036302;28;20168;-81
2021/12/08 08:29:18;;;;;;;0.00;0.00;;;5.50;99.90;;;;;;5018855;28;20463;-81
2021/12/08 08:31:58;;;;;;;0.10;0.10;;;5.60;99.90;;;;;;5065646;28;20395;-82
2021/12/08 08:34:24;;;;;;;0.05;0.05;;;5.80;99.90;;;;;;5113244;28;20104;-82
2021/12/08 08:36:51;;;;;;;0.00;0.00;;;5.80;99.90;;;;;;5096854;28;20143;-82
2021/12/08 08:39:31;;;;;;;0.00;0.00;;;5.70;99.90;;;;;;5097062;28;20421;-81
2021/12/08 08:42:10;;;;;;;1.95;0.70;;;5.70;99.90;;;;;;5097494;28;20391;-82
2021/12/08 08:44:35;;;;;;;0.00;0.00;;;6.00;99.90;;;;;;5096505;28;20051;-82
2021/12/08 08:47:07;;;;;;;3.53;0.75;;;6.10;99.90;;;;;;5095748;28;20039;-82
2021/12/08 08:49:37;;;;;;;0.00;0.00;;;6.10;99.90;;;;;;5113449;28;20402;-81
2021/12/08 08:52:15;;;;;;;0.10;0.10;;;6.20;99.90;;;;;;5113461;28;20052;-81
2021/12/08 08:54:45;;;;;;;2.25;0.25;;;6.30;99.90;;;;;;5096149;28;20094;-81
2021/12/08 08:57:17;;;;;;;0.00;0.00;;;6.60;99.90;;;;;;5112997;28;20445;-82
2021/12/08 08:59:54;;;;;;;0.00;0.00;;;7.40;99.90;;;;;;5112879;28;20390;-81
2021/12/08 09:02:28;;;;;;;2.17;0.93;;;7.90;99.90;;;;;;5096136;28;20143;-81
2021/12/08 09:04:59;;;;;;;1.35;0.10;;;7.90;99.90;;;;;;5096039;28;20176;-81
2021/12/08 09:07:34;;;;;;;0.00;0.00;;;8.00;99.90;;;;;;5096251;28;20371;-81
2021/12/08 09:10:04;;;;;;;0.00;0.00;;;8.10;99.90;;;;;;5112651;28;20495;-81
2021/12/08 09:12:38;;;;;;;0.00;0.00;;;8.00;99.90;;;;;;5112967;28;20055;-81
2021/12/08 09:15:31;;;;;;;1.45;0.52;;;8.20;99.90;;;;;;5095898;28;20491;-81
2021/12/08 09:18:01;;;;;;;0.00;0.00;;;8.40;99.90;;;;;;5095054;28;20052;-81
2021/12/08 09:20:33;;;;;;;0.00;0.00;;;8.30;99.90;;;;;;5095817;28;20055;-81
2021/12/08 09:23:22;;;;;;;0.00;0.00;;;8.00;99.90;;;;;;5095826;28;20074;-81
2021/12/08 09:26:02;;;;;;;0.55;0.55;;;7.60;99.90;;;;;;5095877;28;20051;-81
2021/12/08 09:28:33;;;;;;;0.28;0.28;;;7.30;99.90;;;;;;5095618;28;20082;-82
2021/12/08 09:31:04;;;;;;;0.00;0.00;;;7.10;99.90;;;;;;5112406;28;20055;-82
2021/12/08 09:33:38;;;;;;;0.00;0.00;;;6.90;99.90;;;;;;5112981;28;20135;-81
2021/12/08 09:36:08;;;;;;;0.20;0.00;;;6.70;99.90;;;;;;5112826;28;20090;-81
2021/12/08 09:38:44;;;;;;;0.00;0.00;;;6.60;99.90;;;;;;5095691;28;20036;-81
2021/12/08 09:41:18;;;;;;;0.10;0.10;;;6.60;99.90;;;;;;5099193;28;20130;-82
2021/12/08 09:43:54;;;;;;;0.30;0.00;;;6.50;99.90;;;;;;5099889;28;20506;-81
2021/12/08 09:46:42;;;;;;;0.00;0.00;;;6.50;99.90;;;;;;5098757;28;20059;-81
2021/12/08 09:49:11;;;;;;;0.00;0.00;;;6.50;99.90;;;;;;5098580;28;20052;-81
2021/12/08 09:51:37;;;;;;;0.57;0.13;;;6.50;99.90;;;;;;5133246;27;20127;-81
2021/12/08 09:54:03;;;;;;;1.10;0.25;;;6.50;99.90;;;;;;5116075;28;20139;-81
2021/12/08 09:56:30;;;;;;;0.20;0.10;;;6.40;99.90;;;;;;5115793;28;20047;-81
2021/12/08 09:58:57;;;;;;;0.00;0.00;;;6.40;99.90;;;;;;5116882;28;20138;-81
2021/12/08 10:01:24;;;;;;;0.57;0.08;;;6.30;99.90;;;;;;5099467;28;20078;-81
2021/12/08 10:03:52;;;;;;;0.20;0.10;;;6.30;99.90;;;;;;5099262;28;20132;-83
2021/12/08 10:06:20;;;;;;;0.05;0.05;;;6.30;99.90;;;;;;5099397;28;20048;-82
2021/12/08 10:08:47;;;;;;;0.00;0.00;;;6.40;99.90;;;;;;5099691;28;20105;-81
2021/12/08 10:11:15;;;;;;;0.00;0.00;;;6.40;99.90;;;;;;5099759;28;20039;-81
2021/12/08 10:13:41;;;;;;;0.00;0.00;;;6.70;99.90;;;;;;5098912;28;20051;-81
2021/12/08 10:16:08;;;;;;;1.25;1.15;;;6.50;99.90;;;;;;5116049;28;20062;-81
2021/12/08 10:18:35;;;;;;;0.22;0.22;;;6.60;99.90;;;;;;5099197;28;20372;-81
2021/12/08 10:21:01;;;;;;;0.00;0.00;;;7.00;99.90;;;;;;5117232;28;20140;-81
2021/12/08 10:23:36;;;;;;;0.13;0.13;;;7.40;99.90;;;;;;5116471;28;20634;-81
2021/12/08 10:26:10;;;;;;;0.10;0.00;;;7.80;99.90;;;;;;5099493;28;20433;-81
2021/12/08 10:28:49;;;;;;;0.00;0.00;;;8.40;99.90;;;;;;5098713;28;20146;-81
2021/12/08 10:31:33;;;;;;;0.08;0.08;;;9.00;99.90;;;;;;5099120;28;20043;-81
2021/12/08 10:34:11;;;;;;;11.68;0.30;;;9.40;99.90;;;;;;5098596;28;20063;-81
2021/12/08 10:36:55;;;;;;;1.13;0.30;;;9.50;99.90;;;;;;5115349;28;20463;-81
2021/12/08 10:39:33;;;;;;;0.00;0.00;;;9.50;99.90;;;;;;5099166;28;20045;-81
2021/12/08 10:42:07;;;;;;;0.00;0.00;;;9.60;99.90;;;;;;5098866;28;20402;-81
2021/12/08 10:44:46;;;;;;;0.00;0.00;;;9.70;99.90;;;;;;5099093;28;20048;-81
2021/12/08 10:47:16;;;;;;;0.00;0.00;;;10.10;99.90;;;;;;5116150;28;20394;-81
2021/12/08 10:55:06;;;;;;;2.95;0.88;;;11.10;99.90;;;;;;5115077;28;20040;-81
2021/12/08 10:57:37;;;;;;;0.00;0.00;;;11.00;97.00;;;;;;5132298;27;20044;-81
2021/12/08 11:00:14;;;;;;;0.13;0.13;;;10.90;95.10;;;;;;5114982;28;20101;-82
2021/12/08 11:02:46;;;;;;;0.10;0.00;;;10.50;98.00;;;;;;5114756;28;20118;-81
2021/12/08 11:05:24;;;;;;;0.00;0.00;;;10.40;99.10;;;;;;5114839;28;20452;-81
2021/12/08 11:08:17;;;;;;;0.00;0.00;;;10.20;99.20;;;;;;5098070;28;20086;-81
2021/12/08 11:10:54;;;;;;;0.00;0.00;;;9.90;99.40;;;;;;5115261;28;20054;-81
2021/12/08 11:13:45;;;;;;;0.00;0.00;;;9.70;99.80;;;;;;5115542;28;20518;-81
2021/12/08 11:16:17;;;;;;;0.05;0.05;;;9.20;99.90;;;;;;5097745;28;20047;-81
2021/12/08 11:18:49;;;;;;;2.15;0.32;;;8.90;99.90;;;;;;5097500;28;20386;-81
2021/12/08 11:21:38;;;;;;;0.17;0.17;;;8.60;99.90;;;;;;5114421;28;20083;-81
2021/12/08 11:24:11;;;;;;;0.28;0.28;;;8.50;99.90;;;;;;5097670;28;20062;-81
2021/12/08 11:26:46;;;;;;;0.00;0.00;;;8.40;99.90;;;;;;5114850;28;20074;-81
2021/12/08 11:29:22;;;;;;;0.38;0.38;;;8.30;99.90;;;;;;5097148;28;20097;-81
2021/12/08 11:31:54;;;;;;;0.00;0.00;;;8.10;99.90;;;;;;5097657;28;20106;-81
2021/12/08 11:34:21;;;;;;;0.00;0.00;;;8.10;99.90;;;;;;5113875;28;20142;-81
2021/12/08 11:36:51;;;;;;;0.00;0.00;;;8.00;99.90;;;;;;5097124;28;20047;-81
2021/12/08 11:39:31;;;;;;;0.00;0.00;;;7.90;99.90;;;;;;5097151;28;20047;-81
2021/12/08 11:42:06;;;;;;;0.00;0.00;;;7.80;99.90;;;;;;5096904;28;20077;-81
2021/12/08 11:44:34;;;;;;;3.22;0.25;;;7.60;99.90;;;;;;5097291;28;20399;-81
2021/12/08 11:47:03;;;;;;;0.00;0.00;;;7.50;99.90;;;;;;5096852;28;20055;-81
2021/12/08 11:49:29;;;;;;;0.10;0.00;;;7.50;99.90;;;;;;5113989;28;20051;-81
2021/12/08 11:52:01;;;;;;;0.00;0.00;;;7.40;99.90;;;;;;5096987;28;20070;-81
2021/12/08 11:54:46;;;;;;;0.10;0.10;;;7.40;99.90;;;;;;5113887;28;20039;-81
2021/12/08 11:57:18;;;;;;;0.00;0.00;;;7.40;99.90;;;;;;5113651;28;20051;-81
2021/12/08 12:00:20;;;;;;;0.63;0.20;;;7.30;99.90;;;;;;5096722;28;20054;-81
2021/12/08 12:03:00;;;;;;;0.00;0.00;;;7.30;99.90;;;;;;5113065;28;20082;-81
2021/12/08 12:05:31;;;;;;;0.00;0.00;;;7.20;99.90;;;;;;5096909;28;20491;-81
2021/12/08 12:07:57;;;;;;;1.65;0.00;;;7.10;99.90;;;;;;5096900;28;20048;-81
2021/12/08 12:10:27;;;;;;;0.00;0.00;;;7.00;99.90;;;;;;5096744;28;20040;-81
2021/12/08 12:12:53;;;;;;;0.22;0.22;;;7.00;99.90;;;;;;5096577;28;20043;-81
2021/12/08 12:15:21;;;;;;;1.38;0.30;;;7.00;99.90;;;;;;5130241;27;20076;-82
2021/12/08 12:17:47;;;;;;;0.00;0.00;;;7.00;99.90;;;;;;5096725;28;20066;-81
2021/12/08 12:20:20;;;;;;;0.00;0.00;;;6.90;99.90;;;;;;5096570;28;20054;-81
2021/12/08 12:23:01;;;;;;;0.00;0.00;;;6.80;99.90;;;;;;5096335;28;20043;-81
2021/12/08 12:25:32;;;;;;;0.00;0.00;;;6.90;99.90;;;;;;5096408;28;20130;-82
2021/12/08 12:28:24;;;;;;;0.00;0.00;;;6.80;99.90;;;;;;5114055;28;20134;-81
2021/12/08 12:31:08;;;;;;;0.10;0.10;;;6.90;99.90;;;;;;5096421;28;20139;-81
2021/12/08 12:33:42;;;;;;;0.00;0.00;;;6.90;99.90;;;;;;5113014;28;20478;-81
2021/12/08 12:36:27;;;;;;;0.00;0.00;;;6.90;99.90;;;;;;5113123;28;20075;-81
2021/12/08 12:39:09;;;;;;;0.00;0.00;;;6.80;99.90;;;;;;5113157;28;20483;-81
2021/12/08 12:41:35;;;;;;;0.00;0.00;;;6.80;99.90;;;;;;5096194;28;20043;-81
2021/12/08 12:44:21;;;;;;;0.00;0.00;;;6.80;99.90;;;;;;5129978;27;20509;-81
2021/12/08 12:47:09;;;;;;;0.00;0.00;;;6.80;99.90;;;;;;5113117;28;20055;-82
2021/12/08 12:49:42;;;;;;;6.03;1.45;;;6.80;99.90;;;;;;5096102;28;20050;-81
2021/12/08 12:52:13;;;;;;;0.00;0.00;;;6.80;99.90;;;;;;5113055;28;20113;-81
2021/12/08 12:54:40;;;;;;;0.03;0.03;;;6.80;99.90;;;;;;5112852;28;20441;-81
2021/12/08 12:57:07;;;;;;;0.00;0.00;;;6.80;99.90;;;;;;5113019;28;20052;-81
2021/12/08 12:59:42;;;;;;;0.00;0.00;;;6.80;99.90;;;;;;5113538;28;20437;-81
2021/12/08 13:02:13;;;;;;;0.00;0.00;;;6.80;99.90;;;;;;5096261;28;20079;-81
2021/12/08 13:05:11;;;;;;;0.00;0.00;;;6.90;99.90;;;;;;5112886;28;20058;-81
2021/12/08 13:07:54;;;;;;;0.00;0.00;;;6.80;99.90;;;;;;5113019;28;20048;-81
2021/12/08 13:10:28;;;;;;;0.00;0.00;;;6.80;99.90;;;;;;5096464;28;20048;-81
2021/12/08 13:13:12;;;;;;;0.00;0.00;;;6.80;99.90;;;;;;5096034;28;20130;-81
2021/12/08 13:15:42;;;;;;;0.00;0.00;;;6.80;99.90;;;;;;5115995;28;20070;-82
2021/12/08 13:18:11;;;;;;;0.00;0.00;;;7.00;99.90;;;;;;5117189;28;20435;-81
2021/12/08 13:20:39;;;;;;;4.28;0.55;;;6.90;99.90;;;;;;5116963;28;20514;-81
2021/12/08 13:23:08;;;;;;;3.25;0.15;;;7.00;99.90;;;;;;5116587;28;20126;-81
2021/12/08 13:25:47;;;;;;;0.00;0.00;;;6.90;99.90;;;;;;5116963;28;20108;-81
2021/12/08 13:28:16;;;;;;;0.00;0.00;;;7.00;99.90;;;;;;5099651;28;20052;-81
2021/12/08 13:30:48;;;;;;;0.00;0.00;;;6.90;99.90;;;;;;5100342;28;20050;-81
2021/12/08 13:33:53;;;;;;;0.00;0.00;;;7.00;99.90;;;;;;5102306;27;20440;-81
2021/12/08 13:36:31;;;;;;;1.50;0.73;;;6.90;99.90;;;;;;5055013;28;20064;-82
2021/12/08 13:38:56;;;;;;;0.00;0.00;;;6.90;99.90;;;;;;5022188;28;20290;-81
2021/12/08 13:41:23;;;;;;;0.00;0.00;;;6.90;99.90;;;;;;5021747;28;20485;-81
2021/12/08 13:43:50;;;;;;;0.00;0.00;;;6.90;99.90;;;;;;5021557;28;20060;-81
2021/12/08 13:46:37;;;;;;;0.00;0.00;;;7.00;99.90;;;;;;5038234;28;20049;-81
2021/12/08 13:49:18;;;;;;;0.10;0.10;;;6.80;99.90;;;;;;5037743;28;20041;-81
2021/12/08 13:52:08;;;;;;;0.00;0.00;;;6.90;99.90;;;;;;5021899;28;20095;-81
2021/12/08 13:54:35;;;;;;;0.00;0.00;;;6.80;99.90;;;;;;5038098;28;20049;-81
2021/12/08 13:57:03;;;;;;;0.00;0.00;;;6.80;99.90;;;;;;5021522;28;20053;-81
2021/12/08 13:59:45;;;;;;;0.15;0.15;;;6.90;99.90;;;;;;5021986;28;20144;-81
2021/12/08 14:02:27;;;;;;;8.32;1.20;;;6.90;99.90;;;;;;5021636;28;20037;-80
2021/12/08 14:05:24;;;;;;;0.00;0.00;;;7.00;99.90;;;;;;5038401;28;20120;-81
2021/12/08 14:07:49;;;;;;;0.00;0.00;;;7.00;99.90;;;;;;5021576;28;20131;-81